Time;durP1;ratioP1;P1;durP2;ratioP2;P2;SDS_P1;SDS_P2;PMS_P1;PMS_P2;Temp;Humidity;BMP_temperature;BMP_pressure;BME280_temperature;BME280_humidity;BME280_pressure;Samples;Min_cycle;Max_cycle;Signal;HPM_P1;HPM_P2
2022/08/02 00:01:51;;;;;;;;;;;;;;;17.37;91.59;100313.12;1472433;88;20350;-87
2022/08/02 00:04:17;;;;;;;;;;;;;;;17.37;92.10;100309.93;1462751;88;20387;-87
2022/08/02 00:06:43;;;;;;;;;;;;;;;17.38;93.61;100308.11;1458086;89;21512;-87
2022/08/02 00:09:09;;;;;;;;;;;;;;;17.37;93.58;100305.92;1457785;89;20283;-87
2022/08/02 00:11:35;;;;;;;;;;;;;;;17.41;93.94;100305.04;1463156;89;20906;-87
2022/08/02 00:14:01;;;;;;;;;;;;;;;17.43;94.61;100303.48;1458407;89;20290;-86
2022/08/02 00:16:27;;;;;;;;;;;;;;;17.44;96.59;100305.98;1447313;89;20305;-87
2022/08/02 00:18:53;;;;;;;;;;;;;;;17.47;96.24;100305.59;1457977;89;20308;-87
2022/08/02 00:21:19;;;;;;;;;;;;;;;17.49;94.63;100308.91;1460976;89;20773;-87
2022/08/02 00:23:44;;;;;;;;;;;;;;;17.50;95.10;100305.20;1453083;89;20409;-87
2022/08/02 00:26:10;;;;;;;;;;;;;;;17.50;95.64;100306.53;1456596;89;21033;-87
2022/08/02 00:28:36;;;;;;;;;;;;;;;17.51;94.93;100301.49;1431425;89;20290;-86
2022/08/02 00:31:02;;;;;;;;;;;;;;;17.52;94.76;100299.15;1451909;89;20305;-87
2022/08/02 00:33:28;;;;;;;;;;;;;;;17.51;96.10;100304.16;1462896;89;20298;-87
2022/08/02 00:35:54;;;;;;;;;;;;;;;17.49;95.67;100302.22;1456338;89;20863;-87
2022/08/02 00:38:20;;;;;;;;;;;;;;;17.44;96.01;100304.65;1455090;89;20305;-87
2022/08/02 00:40:47;;;;;;;;;;;;;;;17.44;95.44;100301.16;1459857;89;20298;-87
2022/08/02 00:43:13;;;;;;;;;;;;;;;17.44;95.07;100303.31;1454917;89;20328;-87
2022/08/02 00:45:41;;;;;;;;;;;;;;;17.43;94.89;100298.95;1454534;89;21611;-87
2022/08/02 00:48:08;;;;;;;;;;;;;;;17.41;95.99;100298.35;1449849;89;20849;-87
2022/08/02 00:50:35;;;;;;;;;;;;;;;17.41;95.96;100298.87;1449584;89;20894;-87
2022/08/02 00:53:01;;;;;;;;;;;;;;;17.41;95.48;100305.55;1455759;89;20502;-87
2022/08/02 00:55:28;;;;;;;;;;;;;;;17.40;96.21;100303.36;1455971;89;20323;-87
2022/08/02 00:57:54;;;;;;;;;;;;;;;17.37;96.21;100305.92;1456067;89;20290;-87
2022/08/02 01:00:20;;;;;;;;;;;;;;;17.35;96.64;100309.84;1459193;89;20818;-87
2022/08/02 01:02:46;;;;;;;;;;;;;;;17.32;97.09;100305.70;1458270;89;20284;-87
2022/08/02 01:05:12;;;;;;;;;;;;;;;17.31;97.05;100305.88;1456030;88;20395;-86
2022/08/02 01:07:38;;;;;;;;;;;;;;;17.30;96.09;100308.25;1450347;89;20343;-87
2022/08/02 01:10:05;;;;;;;;;;;;;;;17.30;95.14;100305.58;1452696;89;20401;-87
2022/08/02 01:12:31;;;;;;;;;;;;;;;17.29;95.18;100306.58;1436474;89;20915;-87
2022/08/02 01:15:04;;;;;;;;;;;;;;;17.26;94.52;100304.29;1457849;89;20275;-87
2022/08/02 01:17:39;;;;;;;;;;;;;;;17.24;94.54;100303.16;1457587;89;20298;-87
2022/08/02 01:20:18;;;;;;;;;;;;;;;17.17;95.81;100303.61;1459097;89;20379;-87
2022/08/02 01:22:53;;;;;;;;;;;;;;;17.10;95.59;100299.55;1459623;89;20372;-87
2022/08/02 01:25:52;;;;;;;;;;;;;;;17.05;95.53;100307.31;1458071;89;20254;-87
2022/08/02 01:28:28;;;;;;;;;;;;;;;17.00;95.10;100308.39;1457153;89;20369;-86
2022/08/02 01:31:00;;;;;;;;;;;;;;;16.95;94.26;100321.54;1457703;89;20284;-87
2022/08/02 01:33:29;;;;;;;;;;;;;;;16.96;93.99;100319.17;1457634;89;20834;-86
2022/08/02 01:35:55;;;;;;;;;;;;;;;16.96;94.21;100317.02;1458656;89;20305;-86
2022/08/02 01:38:37;;;;;;;;;;;;;;;16.94;94.42;100319.04;1458135;89;20275;-87
2022/08/02 01:41:04;;;;;;;;;;;;;;;16.93;94.43;100317.40;1459096;89;20342;-87
2022/08/02 01:43:32;;;;;;;;;;;;;;;16.92;93.69;100315.23;1458377;89;20878;-86
2022/08/02 01:45:59;;;;;;;;;;;;;;;16.90;94.15;100314.08;1453617;89;20247;-86
2022/08/02 04:03:51;;;;;;;;;;;;;;;16.45;99.95;100344.61;1466619;88;20379;-86
2022/08/02 04:06:16;;;;;;;;;;;;;;;16.50;98.31;100344.88;1460237;89;20306;-86
2022/08/02 04:08:42;;;;;;;;;;;;;;;16.58;97.89;100354.63;1457319;89;20386;-87
2022/08/02 04:13:53;;;;;;;;;;;;;;;16.74;98.52;100354.89;1456941;89;20282;-86
2022/08/02 04:16:24;;;;;;;;;;;;;;;16.77;98.00;100359.89;1458430;89;20350;-87
2022/08/02 04:18:56;;;;;;;;;;;;;;;16.82;98.55;100366.32;1459052;89;20424;-87
2022/08/02 04:21:25;;;;;;;;;;;;;;;16.85;98.06;100371.80;1461104;89;20358;-86
2022/08/02 04:23:52;;;;;;;;;;;;;;;16.88;98.02;100371.42;1455403;89;20289;-87
2022/08/02 04:26:18;;;;;;;;;;;;;;;16.93;98.86;100374.36;1460875;89;20283;-86
2022/08/02 04:28:45;;;;;;;;;;;;;;;16.98;99.36;100374.62;1453583;89;20796;-86
2022/08/02 04:31:11;;;;;;;;;;;;;;;17.02;100.00;100377.22;1453675;89;20240;-86
2022/08/02 04:33:37;;;;;;;;;;;;;;;17.10;99.17;100378.44;1461176;88;20916;-87
2022/08/02 04:36:06;;;;;;;;;;;;;;;17.19;99.42;100380.98;1465368;89;20673;-86
2022/08/02 04:38:32;;;;;;;;;;;;;;;17.26;99.43;100381.37;1456498;89;20350;-86
2022/08/02 04:40:57;;;;;;;;;;;;;;;17.31;98.36;100386.94;1456204;89;20298;-86
2022/08/02 04:43:23;;;;;;;;;;;;;;;17.41;98.12;100386.63;1461317;89;20277;-86
2022/08/02 04:45:52;;;;;;;;;;;;;;;17.49;97.69;100389.17;1452825;89;20782;-86
2022/08/02 04:48:19;;;;;;;;;;;;;;;17.63;96.82;100389.26;1459693;89;20307;-87
2022/08/02 04:50:45;;;;;;;;;;;;;;;17.78;96.51;100392.68;1433881;89;20798;-86
2022/08/02 04:53:10;;;;;;;;;;;;;;;17.94;95.10;100386.21;1454042;89;20269;-86
2022/08/02 04:55:36;;;;;;;;;;;;;;;18.09;94.81;100384.75;1463758;89;21135;-83
2022/08/02 04:58:02;;;;;;;;;;;;;;;18.22;93.20;100386.16;1459979;88;20316;-83
2022/08/02 05:00:29;;;;;;;;;;;;;;;18.33;91.91;100386.13;1447999;90;20360;-82
2022/08/02 05:02:56;;;;;;;;;;;;;;;18.46;92.43;100396.36;1455026;90;20300;-82
2022/08/02 05:05:22;;;;;;;;;;;;;;;18.55;89.47;100388.97;1455112;88;20292;-83
2022/08/02 05:07:48;;;;;;;;;;;;;;;18.65;88.73;100400.16;1458070;88;20315;-83
2022/08/02 05:10:14;;;;;;;;;;;;;;;18.81;89.32;100400.32;1460781;90;20407;-83
2022/08/02 05:12:40;;;;;;;;;;;;;;;18.94;88.83;100397.69;1448397;90;21626;-83
2022/08/02 05:15:08;;;;;;;;;;;;;;;19.14;88.33;100403.09;1458526;90;20337;-83
2022/08/02 05:17:33;;;;;;;;;;;;;;;19.36;88.61;100405.08;1455587;90;20285;-83
2022/08/02 05:19:59;;;;;;;;;;;;;;;19.56;86.55;100414.48;1454764;90;20417;-83
2022/08/02 05:22:25;;;;;;;;;;;;;;;19.74;86.64;100413.05;1451305;90;20300;-83
2022/08/02 05:24:51;;;;;;;;;;;;;;;19.90;87.29;100408.56;1427769;91;20288;-83
2022/08/02 05:27:17;;;;;;;;;;;;;;;20.11;85.93;100416.92;1435328;91;20245;-83
2022/08/02 05:29:42;;;;;;;;;;;;;;;20.32;84.29;100416.34;1423241;91;20333;-83
2022/08/02 05:32:08;;;;;;;;;;;;;;;20.51;82.45;100419.45;1444310;90;20858;-83
2022/08/02 05:34:34;;;;;;;;;;;;;;;20.61;79.94;100421.21;1443770;89;20236;-83
2022/08/02 05:37:00;;;;;;;;;;;;;;;20.77;81.93;100424.44;1441774;89;20843;-83
2022/08/02 05:39:26;;;;;;;;;;;;;;;20.86;78.02;100423.14;1445808;90;20294;-83
2022/08/02 05:41:52;;;;;;;;;;;;;;;20.96;78.09;100422.17;1442540;90;20800;-82
2022/08/02 05:44:18;;;;;;;;;;;;;;;20.89;74.22;100421.40;1450558;89;20293;-83
2022/08/02 05:46:44;;;;;;;;;;;;;;;21.02;76.51;100428.55;1452090;90;20292;-82
2022/08/02 05:49:10;;;;;;;;;;;;;;;21.08;75.13;100429.85;1452497;90;20345;-83
2022/08/02 05:51:44;;;;;;;;;;;;;;;21.16;76.64;100428.25;1449565;90;20314;-82
2022/08/02 05:54:17;;;;;;;;;;;;;;;21.23;74.44;100435.45;1450787;89;20356;-83
2022/08/02 05:56:46;;;;;;;;;;;;;;;21.30;75.68;100434.91;1411080;93;20417;-83
2022/08/02 05:59:18;;;;;;;;;;;;;;;21.39;76.38;100433.62;1410565;93;20498;-83
2022/08/02 06:01:46;;;;;;;;;;;;;;;21.44;74.50;100437.83;1452315;90;20370;-83
2022/08/02 06:04:16;;;;;;;;;;;;;;;21.53;76.04;100441.90;1455955;90;20933;-83
2022/08/02 06:06:43;;;;;;;;;;;;;;;21.64;76.00;100441.72;1453838;90;20375;-83
2022/08/02 06:09:12;;;;;;;;;;;;;;;21.75;75.95;100442.84;1452645;89;20220;-83
2022/08/02 06:11:41;;;;;;;;;;;;;;;21.70;69.69;100442.70;1458498;90;20836;-83
2022/08/02 06:14:08;;;;;;;;;;;;;;;21.76;70.64;100445.33;1449487;90;20301;-83
2022/08/02 06:16:34;;;;;;;;;;;;;;;21.85;72.61;100445.34;1452433;90;20958;-83
2022/08/02 06:19:01;;;;;;;;;;;;;;;21.99;73.00;100447.40;1457020;90;20397;-83
2022/08/02 06:21:27;;;;;;;;;;;;;;;22.17;74.34;100448.47;1449578;90;20740;-82
2022/08/02 06:23:54;;;;;;;;;;;;;;;22.22;69.48;100447.31;1451310;90;20338;-83
2022/08/02 06:26:22;;;;;;;;;;;;;;;22.33;71.33;100444.37;1457160;90;20300;-83
2022/08/02 06:28:48;;;;;;;;;;;;;;;22.33;69.86;100445.22;1457824;90;20400;-83
2022/08/02 06:31:14;;;;;;;;;;;;;;;22.48;71.68;100447.53;1455723;89;20342;-83
2022/08/02 06:33:40;;;;;;;;;;;;;;;22.59;68.10;100454.05;1455391;90;20241;-83
2022/08/02 06:36:11;;;;;;;;;;;;;;;22.70;69.35;100449.22;1449531;90;20300;-83
2022/08/02 06:38:42;;;;;;;;;;;;;;;22.82;69.15;100453.35;1456635;90;20292;-83
2022/08/02 06:41:11;;;;;;;;;;;;;;;22.94;68.51;100464.48;1447696;90;20366;-83
2022/08/02 06:43:59;;;;;;;;;;;;;;;23.09;69.66;100464.09;1454335;90;21667;-83
2022/08/02 06:46:26;;;;;;;;;;;;;;;23.13;65.63;100464.45;1464178;90;20226;-83
2022/08/02 06:48:52;;;;;;;;;;;;;;;23.26;66.97;100462.11;1456605;90;20300;-83
2022/08/02 06:51:18;;;;;;;;;;;;;;;23.35;66.14;100460.72;1453854;90;20932;-83
2022/08/02 06:53:44;;;;;;;;;;;;;;;23.50;67.07;100465.68;1458691;90;20813;-83
2022/08/02 06:56:11;;;;;;;;;;;;;;;23.49;62.74;100470.80;1454185;90;20294;-83
2022/08/02 06:58:37;;;;;;;;;;;;;;;23.59;63.27;100468.33;1455768;89;20255;-83
2022/08/02 07:01:06;;;;;;;;;;;;;;;23.73;64.98;100471.14;1456178;90;20602;-83
2022/08/02 07:03:33;;;;;;;;;;;;;;;23.70;61.77;100462.16;1460129;90;20382;-83
2022/08/02 07:05:59;;;;;;;;;;;;;;;23.57;62.00;100466.41;1449285;90;20284;-83
2022/08/02 07:08:26;;;;;;;;;;;;;;;23.58;63.01;100459.41;1457978;89;20352;-83
2022/08/02 07:10:52;;;;;;;;;;;;;;;23.68;62.59;100467.46;1452142;90;20962;-83
2022/08/02 07:13:18;;;;;;;;;;;;;;;23.76;62.70;100465.27;1447104;89;20316;-83
2022/08/02 07:15:44;;;;;;;;;;;;;;;23.81;61.53;100460.00;1450327;90;20330;-83
2022/08/02 07:18:14;;;;;;;;;;;;;;;23.83;61.08;100455.19;1445897;90;21455;-83
2022/08/02 07:20:41;;;;;;;;;;;;;;;23.77;60.70;100463.42;1451958;90;20901;-83
2022/08/02 07:23:07;;;;;;;;;;;;;;;23.94;61.62;100451.36;1452253;90;20285;-83
2022/08/02 07:25:33;;;;;;;;;;;;;;;24.05;61.90;100454.59;1449394;90;20382;-83
2022/08/02 07:27:58;;;;;;;;;;;;;;;24.25;63.17;100456.92;1457668;90;20271;-83
2022/08/02 07:30:24;;;;;;;;;;;;;;;24.29;59.47;100447.30;1431423;91;20302;-83
2022/08/02 07:32:50;;;;;;;;;;;;;;;24.36;59.35;100447.97;1421536;91;21207;-83
2022/08/02 07:35:16;;;;;;;;;;;;;;;24.41;59.12;100446.73;1423439;91;20252;-83
2022/08/02 07:37:45;;;;;;;;;;;;;;;24.52;59.80;100440.51;1434764;91;20302;-83
2022/08/02 07:40:12;;;;;;;;;;;;;;;24.67;59.00;100445.94;1432670;91;20424;-84
2022/08/02 07:42:38;;;;;;;;;;;;;;;24.81;59.27;100447.84;1428237;91;20295;-83
2022/08/02 07:45:04;;;;;;;;;;;;;;;24.86;56.97;100442.50;1428401;91;20236;-84
2022/08/02 07:47:30;;;;;;;;;;;;;;;24.89;56.37;100437.98;1422194;91;20949;-83
2022/08/02 07:49:56;;;;;;;;;;;;;;;24.89;55.59;100433.92;1442401;91;20369;-84
2022/08/02 07:52:22;;;;;;;;;;;;;;;24.98;56.75;100432.47;1452120;90;20441;-83
2022/08/02 07:54:48;;;;;;;;;;;;;;;25.05;55.83;100429.59;1442655;90;20799;-84
2022/08/02 07:57:14;;;;;;;;;;;;;;;25.16;54.33;100426.86;1442783;89;20257;-83
2022/08/02 07:59:40;;;;;;;;;;;;;;;25.19;55.55;100427.72;1446003;90;20843;-84
2022/08/02 08:02:06;;;;;;;;;;;;;;;25.33;53.99;100426.87;1445017;89;20367;-83
2022/08/02 08:04:31;;;;;;;;;;;;;;;25.53;55.63;100427.75;1447217;90;20865;-84
2022/08/02 08:06:58;;;;;;;;;;;;;;;25.71;55.29;100428.56;1450625;89;20301;-84
2022/08/02 08:09:24;;;;;;;;;;;;;;;25.88;56.69;100421.26;1440326;90;20741;-84
2022/08/02 08:11:49;;;;;;;;;;;;;;;25.89;53.78;100422.89;1442746;89;20300;-83
2022/08/02 08:14:15;;;;;;;;;;;;;;;26.00;54.47;100421.97;1452104;90;20286;-84
2022/08/02 08:16:41;;;;;;;;;;;;;;;26.03;51.87;100426.89;1437787;89;20300;-83
2022/08/02 08:19:07;;;;;;;;;;;;;;;26.15;52.51;100428.67;1449022;90;20235;-83
2022/08/02 08:21:34;;;;;;;;;;;;;;;26.27;52.27;100426.69;1427370;90;20316;-84
2022/08/02 08:24:00;;;;;;;;;;;;;;;26.33;51.92;100427.03;1428889;91;20281;-84
2022/08/02 08:26:27;;;;;;;;;;;;;;;26.29;50.59;100434.02;1437342;91;20207;-83
2022/08/02 08:28:53;;;;;;;;;;;;;;;26.25;49.80;100434.25;1426959;91;20326;-83
2022/08/02 08:31:19;;;;;;;;;;;;;;;26.33;50.64;100428.39;1448383;90;20840;-83
2022/08/02 08:33:46;;;;;;;;;;;;;;;26.44;49.56;100435.59;1443738;89;20405;-84
2022/08/02 08:36:12;;;;;;;;;;;;;;;26.62;51.32;100436.37;1442148;89;20813;-84
2022/08/02 08:38:38;;;;;;;;;;;;;;;26.79;49.69;100433.03;1442055;90;20587;-83
2022/08/02 08:41:04;;;;;;;;;;;;;;;26.88;47.95;100434.21;1441805;90;20353;-83
2022/08/02 08:43:30;;;;;;;;;;;;;;;26.98;46.65;100437.56;1438852;91;20243;-83
2022/08/02 08:45:56;;;;;;;;;;;;;;;27.06;46.27;100431.67;1435021;91;20315;-83
2022/08/02 08:48:24;;;;;;;;;;;;;;;27.09;45.94;100437.13;1433103;90;20308;-84
2022/08/02 08:50:58;;;;;;;;;;;;;;;27.19;45.24;100427.77;1444319;90;20762;-83
2022/08/02 08:53:26;;;;;;;;;;;;;;;27.08;45.38;100425.99;1440597;90;20926;-83
2022/08/02 08:55:55;;;;;;;;;;;;;;;27.21;46.62;100429.66;1439204;90;20346;-84
2022/08/02 08:58:21;;;;;;;;;;;;;;;27.28;47.52;100428.92;1439358;90;20278;-83
2022/08/02 09:00:47;;;;;;;;;;;;;;;27.19;46.19;100434.02;1437264;90;20257;-84
2022/08/02 09:03:13;;;;;;;;;;;;;;;27.16;45.77;100432.33;1444226;90;20442;-83
2022/08/02 09:05:41;;;;;;;;;;;;;;;27.21;46.46;100428.30;1438196;90;20300;-83
2022/08/02 09:08:07;;;;;;;;;;;;;;;27.24;45.78;100427.78;1444351;91;20301;-84
2022/08/02 09:10:36;;;;;;;;;;;;;;;27.21;45.31;100437.81;1444376;90;20293;-84
2022/08/02 09:13:07;;;;;;;;;;;;;;;27.40;46.37;100431.47;1442531;90;20910;-84
2022/08/02 09:15:33;;;;;;;;;;;;;;;27.28;45.26;100431.64;1437000;90;20393;-84
2022/08/02 09:17:59;;;;;;;;;;;;;;;27.45;45.11;100424.18;1445646;91;21273;-84
2022/08/02 09:20:25;;;;;;;;;;;;;;;27.47;46.29;100417.11;1443697;91;20331;-84
2022/08/02 09:23:08;;;;;;;;;;;;;;;27.39;46.21;100423.02;1445365;91;20250;-84
2022/08/02 09:25:35;;;;;;;;;;;;;;;27.49;47.49;100422.30;1433451;91;20272;-83
2022/08/02 09:28:05;;;;;;;;;;;;;;;27.79;46.32;100425.25;1448270;90;20918;-84
2022/08/02 09:30:31;;;;;;;;;;;;;;;27.80;45.57;100422.83;1441892;91;20301;-83
2022/08/02 09:32:58;;;;;;;;;;;;;;;27.92;46.86;100419.09;1446492;90;20264;-83
2022/08/02 09:35:39;;;;;;;;;;;;;;;27.98;45.23;100420.21;1445049;90;20353;-83
2022/08/02 09:38:10;;;;;;;;;;;;;;;28.18;45.97;100418.14;1442068;90;20799;-83
2022/08/02 09:40:37;;;;;;;;;;;;;;;28.35;46.01;100416.59;1439742;90;20375;-84
2022/08/02 09:43:04;;;;;;;;;;;;;;;28.53;44.43;100414.77;1446130;91;20279;-84
2022/08/02 09:45:36;;;;;;;;;;;;;;;28.25;43.49;100410.54;1443658;90;20300;-85
2022/08/02 09:48:06;;;;;;;;;;;;;;;27.95;43.94;100409.05;1435324;91;20264;-83
2022/08/02 09:50:34;;;;;;;;;;;;;;;27.75;44.06;100415.14;1444292;90;20286;-83
2022/08/02 09:53:02;;;;;;;;;;;;;;;27.81;43.55;100413.58;1442282;91;20360;-84
2022/08/02 09:55:28;;;;;;;;;;;;;;;27.99;43.48;100410.14;1447703;91;20330;-83
2022/08/02 09:57:54;;;;;;;;;;;;;;;28.21;42.78;100410.80;1442516;91;20294;-84
2022/08/02 10:00:20;;;;;;;;;;;;;;;28.52;44.59;100409.06;1420607;91;20579;-84
2022/08/02 10:03:07;;;;;;;;;;;;;;;28.77;44.48;100409.68;1448776;90;20257;-84
2022/08/02 10:05:48;;;;;;;;;;;;;;;29.07;43.97;100404.58;1443087;91;20345;-84
2022/08/02 10:08:14;;;;;;;;;;;;;;;28.95;40.66;100403.45;1437386;90;20390;-83
2022/08/02 10:10:42;;;;;;;;;;;;;;;28.50;41.62;100407.14;1442788;91;20287;-84
2022/08/02 10:13:09;;;;;;;;;;;;;;;28.46;42.38;100410.68;1416215;91;20408;-84
2022/08/02 10:15:36;;;;;;;;;;;;;;;28.70;41.26;100407.74;1438656;91;21064;-83
2022/08/02 10:18:05;;;;;;;;;;;;;;;28.77;42.28;100408.32;1433220;90;20843;-83
2022/08/02 10:20:37;;;;;;;;;;;;;;;28.69;42.44;100402.58;1433850;91;21040;-83
2022/08/02 10:23:04;;;;;;;;;;;;;;;28.52;42.55;100392.73;1446388;90;20398;-84
2022/08/02 10:25:30;;;;;;;;;;;;;;;28.47;43.65;100394.06;1435812;91;20308;-84
2022/08/02 10:27:57;;;;;;;;;;;;;;;28.28;42.78;100390.99;1433604;90;20807;-84
2022/08/02 10:30:23;;;;;;;;;;;;;;;27.94;42.70;100388.35;1438672;91;20293;-84
2022/08/02 10:32:49;;;;;;;;;;;;;;;27.64;42.59;100395.22;1437260;90;20362;-84
2022/08/02 10:35:18;;;;;;;;;;;;;;;27.70;43.66;100388.73;1442434;90;20414;-84
2022/08/02 10:37:45;;;;;;;;;;;;;;;28.07;44.43;100392.78;1449014;90;20228;-84
2022/08/02 10:40:25;;;;;;;;;;;;;;;28.51;43.35;100386.17;1437980;90;20316;-84
2022/08/02 10:42:52;;;;;;;;;;;;;;;28.90;42.89;100388.45;1451946;90;20331;-84
2022/08/02 10:45:20;;;;;;;;;;;;;;;29.15;41.78;100387.14;1441745;91;20264;-84
2022/08/02 10:48:15;;;;;;;;;;;;;;;28.87;41.93;100391.17;1441200;90;20301;-84
2022/08/02 10:50:51;;;;;;;;;;;;;;;28.70;41.90;100385.96;1430790;91;20301;-83
2022/08/02 10:53:32;;;;;;;;;;;;;;;28.46;43.06;100389.72;1442357;90;20300;-84
2022/08/02 10:56:01;;;;;;;;;;;;;;;28.78;43.89;100387.34;1436258;90;20301;-84
2022/08/02 10:58:30;;;;;;;;;;;;;;;29.02;39.37;100382.19;1439919;90;20323;-84
2022/08/02 11:00:58;;;;;;;;;;;;;;;29.32;40.82;100391.48;1435371;90;20874;-84
2022/08/02 11:03:32;;;;;;;;;;;;;;;29.70;39.35;100392.05;1424095;91;20265;-84
2022/08/02 11:06:03;;;;;;;;;;;;;;;29.63;40.14;100390.39;1438612;90;20315;-84
2022/08/02 11:08:29;;;;;;;;;;;;;;;29.27;39.79;100394.23;1442077;90;21459;-84
2022/08/02 11:11:10;;;;;;;;;;;;;;;28.98;40.57;100396.09;1441733;91;20398;-84
2022/08/02 11:13:57;;;;;;;;;;;;;;;28.70;41.78;100392.77;1442813;90;20328;-84
2022/08/02 11:16:24;;;;;;;;;;;;;;;28.45;42.08;100393.50;1444417;90;20316;-84
2022/08/02 11:18:54;;;;;;;;;;;;;;;28.08;43.47;100401.75;1431790;90;20929;-84
2022/08/02 11:21:23;;;;;;;;;;;;;;;27.76;44.55;100401.81;1437108;90;20412;-84
2022/08/02 11:23:49;;;;;;;;;;;;;;;27.60;45.71;100396.83;1435629;91;21081;-84
2022/08/02 11:26:31;;;;;;;;;;;;;;;27.30;46.79;100400.94;1436228;91;20406;-84
2022/08/02 11:29:00;;;;;;;;;;;;;;;27.10;47.29;100403.45;1434839;90;20242;-84
2022/08/02 11:31:27;;;;;;;;;;;;;;;27.04;48.31;100402.58;1436085;90;20493;-84
2022/08/02 11:33:53;;;;;;;;;;;;;;;26.98;49.11;100403.61;1442542;90;20779;-84
2022/08/02 11:36:19;;;;;;;;;;;;;;;27.04;49.14;100405.30;1448021;90;20279;-84
2022/08/02 11:38:45;;;;;;;;;;;;;;;27.12;48.67;100399.95;1438923;91;20375;-84
2022/08/02 11:41:19;;;;;;;;;;;;;;;27.12;48.08;100399.95;1437399;91;20293;-84
2022/08/02 11:43:45;;;;;;;;;;;;;;;27.07;45.85;100402.61;1437940;90;20330;-84
2022/08/02 11:46:12;;;;;;;;;;;;;;;27.15;47.29;100402.98;1443031;91;20552;-84
2022/08/02 11:48:39;;;;;;;;;;;;;;;27.17;46.78;100405.46;1444323;90;20228;-84
2022/08/02 11:51:11;;;;;;;;;;;;;;;27.24;47.05;100406.05;1430795;91;20369;-84
2022/08/02 11:53:44;;;;;;;;;;;;;;;27.37;47.66;100400.73;1437370;91;20983;-84
2022/08/02 11:56:10;;;;;;;;;;;;;;;27.49;48.02;100402.73;1433923;91;20390;-84
2022/08/02 11:58:37;;;;;;;;;;;;;;;27.49;47.88;100401.91;1436418;91;20383;-84
2022/08/02 12:01:04;;;;;;;;;;;;;;;27.49;47.82;100403.27;1434362;91;20257;-84
2022/08/02 12:03:38;;;;;;;;;;;;;;;27.50;48.24;100403.54;1443466;90;20338;-84
2022/08/02 12:06:05;;;;;;;;;;;;;;;27.50;49.21;100404.90;1442539;90;20806;-84
2022/08/02 12:08:32;;;;;;;;;;;;;;;27.44;50.44;100408.12;1443221;91;20462;-83
2022/08/02 12:11:02;;;;;;;;;;;;;;;27.19;51.39;100415.54;1433947;90;20308;-84
2022/08/02 12:13:30;;;;;;;;;;;;;;;27.39;52.31;100414.34;1437469;91;20405;-84
2022/08/02 12:19:17;;;;;;;;;;;;;;;27.50;51.42;100411.70;1447282;90;20330;-84
2022/08/02 12:21:23;;;;;;;;;;;;;;;27.93;49.87;100403.04;1443450;90;20271;-84
2022/08/02 12:23:49;;;;;;;;;;;;;;;28.42;49.24;100398.67;1440918;91;20293;-84
2022/08/02 12:26:15;;;;;;;;;;;;;;;28.85;48.30;100400.70;1437920;91;20264;-84
2022/08/02 12:28:40;;;;;;;;;;;;;;;29.02;45.32;100401.27;1437201;91;21579;-83
2022/08/02 12:31:16;;;;;;;;;;;;;;;28.84;44.33;100403.16;1437679;90;20285;-84
2022/08/02 12:33:51;;;;;;;;;;;;;;;28.65;43.75;100402.28;1444487;91;20826;-84
2022/08/02 12:36:29;;;;;;;;;;;;;;;28.92;43.68;100397.18;1443414;90;20390;-84
2022/08/02 12:38:57;;;;;;;;;;;;;;;28.72;43.75;100404.77;1448235;90;20272;-84
2022/08/02 12:41:24;;;;;;;;;;;;;;;28.64;45.76;100406.09;1438782;91;20427;-84
2022/08/02 12:43:51;;;;;;;;;;;;;;;28.23;44.47;100404.56;1435696;91;20339;-84
2022/08/02 12:46:19;;;;;;;;;;;;;;;28.14;45.62;100400.72;1429522;90;20323;-84
2022/08/02 12:48:45;;;;;;;;;;;;;;;27.94;46.44;100397.87;1445324;91;20308;-84
2022/08/02 12:51:33;;;;;;;;;;;;;;;27.85;46.48;100395.67;1436553;91;20903;-84
2022/08/02 12:54:15;;;;;;;;;;;;;;;27.61;45.67;100403.89;1438662;90;20243;-84
2022/08/02 12:56:41;;;;;;;;;;;;;;;27.33;46.06;100404.49;1436457;91;20438;-84
2022/08/02 12:59:07;;;;;;;;;;;;;;;27.27;46.75;100405.53;1442890;91;20257;-84
2022/08/02 13:01:34;;;;;;;;;;;;;;;27.17;47.15;100409.53;1438134;91;20976;-84
2022/08/02 13:04:00;;;;;;;;;;;;;;;27.12;48.02;100413.52;1433387;91;20480;-84
2022/08/02 13:06:26;;;;;;;;;;;;;;;27.05;48.27;100410.22;1444101;91;20748;-84
2022/08/02 13:08:53;;;;;;;;;;;;;;;27.10;48.46;100410.23;1433778;91;20397;-84
2022/08/02 13:11:20;;;;;;;;;;;;;;;27.12;48.23;100398.59;1437410;91;20896;-84
2022/08/02 13:13:46;;;;;;;;;;;;;;;27.11;47.73;100406.47;1440971;90;20294;-84
2022/08/02 13:16:12;;;;;;;;;;;;;;;27.20;46.28;100402.23;1437776;90;20293;-84
2022/08/02 13:18:38;;;;;;;;;;;;;;;27.40;45.42;100403.75;1432288;90;20413;-84
2022/08/02 13:21:07;;;;;;;;;;;;;;;27.79;45.78;100395.34;1432299;91;20361;-84
2022/08/02 13:23:34;;;;;;;;;;;;;;;28.17;43.51;100387.95;1441119;90;20331;-84
2022/08/02 13:26:02;;;;;;;;;;;;;;;28.41;43.34;100391.57;1444249;91;20398;-84
2022/08/02 13:28:28;;;;;;;;;;;;;;;28.64;42.58;100392.48;1444906;90;20308;-84
2022/08/02 13:30:54;;;;;;;;;;;;;;;28.76;43.10;100397.13;1440824;91;20294;-83
2022/08/02 13:33:20;;;;;;;;;;;;;;;28.75;41.76;100394.15;1439706;90;20881;-84
2022/08/02 13:35:47;;;;;;;;;;;;;;;29.05;42.14;100388.48;1445581;90;20301;-84
2022/08/02 13:38:13;;;;;;;;;;;;;;;29.53;40.05;100391.76;1439365;91;20220;-84
2022/08/02 13:41:07;;;;;;;;;;;;;;;30.22;40.69;100381.27;1434560;91;20271;-84
2022/08/02 13:43:06;;;;;;;;;;;;;;;31.05;38.88;100387.92;1440551;91;20346;-84
2022/08/02 13:45:32;;;;;;;;;;;;;;;31.55;38.13;100384.49;1439141;90;21472;-85
2022/08/02 13:47:58;;;;;;;;;;;;;;;32.24;37.96;100387.30;1449011;90;20293;-85
2022/08/02 13:50:24;;;;;;;;;;;;;;;32.13;34.84;100383.05;1443464;90;20726;-85
2022/08/02 13:52:49;;;;;;;;;;;;;;;32.04;34.76;100387.55;1434072;91;20512;-85
2022/08/02 13:55:15;;;;;;;;;;;;;;;31.70;34.43;100382.96;1442411;90;20346;-84
2022/08/02 13:57:41;;;;;;;;;;;;;;;31.46;35.74;100372.81;1435239;91;21146;-85
2022/08/02 14:00:10;;;;;;;;;;;;;;;31.61;37.01;100380.59;1443272;91;20428;-84
2022/08/02 14:02:37;;;;;;;;;;;;;;;31.38;37.07;100378.09;1438775;91;20962;-84
2022/08/02 14:05:03;;;;;;;;;;;;;;;31.21;37.98;100375.73;1435242;90;20388;-85
2022/08/02 14:07:29;;;;;;;;;;;;;;;30.90;38.55;100370.53;1444322;91;20235;-84
2022/08/02 14:09:54;;;;;;;;;;;;;;;30.87;39.54;100371.63;1442463;91;20917;-83
2022/08/02 14:12:20;;;;;;;;;;;;;;;30.62;39.10;100365.78;1437612;90;20279;-84
2022/08/02 14:14:46;;;;;;;;;;;;;;;30.82;39.88;100367.04;1447143;90;20835;-83
2022/08/02 14:17:12;;;;;;;;;;;;;;;31.02;39.22;100365.52;1441737;91;20285;-84
2022/08/02 14:19:38;;;;;;;;;;;;;;;31.23;38.90;100367.52;1443110;90;20243;-84
2022/08/02 14:22:04;;;;;;;;;;;;;;;31.40;38.85;100361.66;1434621;90;20397;-84
2022/08/02 14:24:30;;;;;;;;;;;;;;;31.45;38.47;100354.78;1448214;90;20831;-84
2022/08/02 14:26:56;;;;;;;;;;;;;;;31.42;39.23;100357.28;1435704;90;20287;-84
2022/08/02 14:29:22;;;;;;;;;;;;;;;31.29;39.35;100358.72;1433214;90;20316;-84
2022/08/02 14:31:48;;;;;;;;;;;;;;;31.15;40.90;100364.59;1438479;90;20235;-84
2022/08/02 14:34:14;;;;;;;;;;;;;;;30.75;41.73;100365.13;1441453;91;20316;-84
2022/08/02 14:36:40;;;;;;;;;;;;;;;30.33;42.54;100358.30;1440403;90;20301;-84
2022/08/02 14:39:06;;;;;;;;;;;;;;;30.12;43.77;100367.91;1441094;90;20345;-84
2022/08/02 14:41:35;;;;;;;;;;;;;;;29.95;44.20;100365.23;1435126;91;20419;-84
2022/08/02 14:44:03;;;;;;;;;;;;;;;29.60;44.81;100370.46;1442164;90;20401;-84
2022/08/02 14:46:31;;;;;;;;;;;;;;;29.09;44.66;100364.23;1439858;91;20300;-85
2022/08/02 14:49:00;;;;;;;;;;;;;;;28.85;45.42;100376.19;1448178;90;20287;-85
2022/08/02 14:51:24;;;;;;;;;;;;;;;28.65;45.88;100373.69;1443228;90;20383;-84
2022/08/02 14:53:50;;;;;;;;;;;;;;;28.55;46.28;100373.68;1444094;90;20243;-84
2022/08/02 14:56:16;;;;;;;;;;;;;;;28.42;46.47;100371.45;1442530;91;20308;-84
2022/08/02 14:58:42;;;;;;;;;;;;;;;28.25;46.57;100372.45;1443665;90;20300;-84
2022/08/02 15:01:08;;;;;;;;;;;;;;;28.29;45.98;100370.84;1433753;91;20346;-84